• Join FlightAware (Why Join?)
  • Login
  • US Flag 
12:17AM EST


 

Airport Tracker/Info


-or-


 

Live Flight TrackerFlight Track Log ✈ SWA618 ✈ 24-Apr-2014 ✈ KMCO - KBDL

Flight Track Log - Related Links

Times and Time Zones

All times are in EDT time to prevent confusion due to time zone crossing. See the SWA618 flight status page for this flight to view local times or setup timezone preferences in your user account.

Time Position Orientation Groundspeed Altitude Reporting Facility
EDT Latitude Longitude Course Direction KTS MPH feet Rate Location/Type
09:21PM 28.3667 -81.3500 233° Southwest 215 247 4,300  Level Orlando TRACON
09:22PM 28.3667 -81.4333 270° West 222 255 7,600 3,150 Climbing Orlando TRACON
09:23PM 28.3667 -81.5000 270° West 289 333 10,600 2,929 Climbing Orlando TRACON
09:24PM 28.4667 -81.5167 352° North 386 444 13,800 2,000 Climbing Orlando TRACON
09:25PM 29.1140 -81.3833 North  Level FlightAware Approximate
09:26PM 28.6400 -81.4047 30° Northeast 388 447 16,800  Level Jacksonville Center
09:27PM 28.7442 -81.3936 North 365 420 19,200 2,400 Climbing Jacksonville Center
09:28PM 28.8361 -81.3922 North 377 434 21,600 2,400 Climbing Jacksonville Center
09:29PM 28.9572 -81.3928 360° North 382 440 24,000 2,200 Climbing Jacksonville Center
09:30PM 29.0719 -81.3933 360° North 395 455 26,000 1,950 Climbing Jacksonville Center
09:31PM 29.1931 -81.4011 357° North 417 480 27,900 1,850 Climbing Jacksonville Center
09:32PM 29.3144 -81.4136 355° North 431 496 29,700 1,700 Climbing Jacksonville Center
09:33PM 29.4397 -81.4236 356° North 437 503 31,300 1,700 Climbing Jacksonville Center
09:34PM 29.5672 -81.4383 354° North 448 516 33,100 1,750 Climbing Jacksonville Center
09:35PM 29.6925 -81.4486 356° North 448 516 34,800 1,700 Climbing Jacksonville Center
09:36PM 29.8158 -81.4611 355° North 443 510 36,500 1,450 Climbing Jacksonville Center
09:37PM 29.9414 -81.4736 355° North 443 510 37,700 1,100 Climbing Jacksonville Center
09:38PM 30.0644 -81.4839 356° North 443 510 38,700 650 Climbing Jacksonville Center
09:39PM 30.1878 -81.4964 355° North 443 510 39,000 150 Climbing Jacksonville Center
09:40PM 30.3153 -81.5067 356° North 443 510 39,000  Level Jacksonville Center
09:41PM 30.4569 -81.4828 North 443 510 39,000  Level Jacksonville Center
09:42PM 30.5800 -81.4642 North 448 516 39,000  Level Jacksonville Center
09:43PM 30.7050 -81.4428 North 448 516 39,000  Level Jacksonville Center
09:44PM 30.8300 -81.4217 North 448 516 39,000  Level Jacksonville Center
09:45PM 30.9506 -81.3761 18° North 436 502 39,000  Level Jacksonville Center
09:46PM 31.0667 -81.2992 30° Northeast 448 516 39,000  Level Jacksonville Center
09:47PM 31.1806 -81.2244 29° Northeast 459 528 39,000  Level Jacksonville Center
09:48PM 31.2903 -81.1469 31° Northeast 466 536 39,000  Level Jacksonville Center
09:49PM 31.4017 -81.0694 31° Northeast 466 536 39,000  Level Jacksonville Center
09:50PM 31.5175 -80.9942 29° Northeast 466 536 39,000  Level Jacksonville Center
09:51PM 31.6169 -80.9261 30° Northeast 466 536 39,000  Level Jacksonville Center
09:52PM 31.7428 -80.8406 30° Northeast 466 536 39,000  Level Jacksonville Center
09:53PM 31.8522 -80.7647 30° Northeast 461 531 39,000  Level Jacksonville Center
09:54PM 31.9636 -80.6861 31° Northeast 461 531 39,000  Level Jacksonville Center
09:55PM 32.0769 -80.6100 30° Northeast 461 531 39,000  Level Jacksonville Center
09:56PM 32.1761 -80.5411 30° Northeast 461 531 39,000  Level Jacksonville Center
09:57PM 32.2872 -80.4647 30° Northeast 461 531 39,000  Level Jacksonville Center
09:58PM 32.3986 -80.3853 31° Northeast 461 531 39,000  Level Jacksonville Center
09:59PM 32.5097 -80.3061 31° Northeast 461 531 39,000  Level Jacksonville Center
10:00PM 32.6228 -80.2289 30° Northeast 461 531 39,000  Level Jacksonville Center
10:01PM 32.7339 -80.1489 31° Northeast 467 537 39,000  Level Jacksonville Center
10:02PM 32.8592 -80.0611 30° Northeast 467 537 39,000  Level Jacksonville Center
10:03PM 32.9700 -79.9783 32° Northeast 467 537 39,000  Level Jacksonville Center
10:04PM 33.0831 -79.8978 31° Northeast 467 537 39,000  Level Jacksonville Center
10:05PM 33.1917 -79.8222 30° Northeast 462 532 39,000  Level Jacksonville Center
10:06PM 33.3044 -79.7386 32° Northeast 462 532 39,000  Level Jacksonville Center
10:07PM 33.4153 -79.6578 31° Northeast 462 532 39,000  Level Jacksonville Center
10:08PM 33.5258 -79.5764 32° Northeast 462 532 39,000  Level Jacksonville Center
10:09PM 33.6364 -79.4950 31° Northeast 462 532 39,000  Level Jacksonville Center
10:10PM 33.7303 -79.4239 32° Northeast 461 531 39,000  Level Jacksonville Center
10:11PM 33.8386 -79.3447 31° Northeast 456 525 39,000  Level Jacksonville Center
10:13PM 34.0567 -79.1803 32° Northeast 463 533 39,000  Level Washington Center
10:14PM 34.1664 -79.0997 31° Northeast 463 533 39,000  Level Washington Center
10:15PM 34.2747 -79.0169 32° Northeast 462 532 39,000  Level Washington Center
10:16PM 34.3847 -78.9353 31° Northeast 462 532 39,000  Level Washington Center
10:17PM 34.5153 -78.8372 32° Northeast 462 532 39,000  Level Washington Center
10:18PM 34.6181 -78.7575 33° Northeast 462 532 39,000  Level Washington Center
10:19PM 34.7281 -78.6756 31° Northeast 462 532 39,000  Level Washington Center
10:20PM 34.8358 -78.5917 33° Northeast 462 532 39,000  Level Washington Center
10:21PM 34.9658 -78.4922 32° Northeast 462 532 39,000  Level Washington Center
10:22PM 35.0731 -78.4097 32° Northeast 461 531 39,000  Level Washington Center
10:23PM 35.1794 -78.3275 32° Northeast 459 528 39,000  Level Washington Center
10:24PM 35.2858 -78.2444 33° Northeast 459 528 39,000  Level Washington Center
10:25PM 35.3928 -78.1625 32° Northeast 459 528 39,000  Level Washington Center
10:26PM 35.5203 -78.0631 32° Northeast 459 528 39,000  Level Washington Center
10:27PM 35.6269 -77.9800 32° Northeast 458 527 39,000  Level Washington Center
10:28PM 35.7336 -77.8961 33° Northeast 458 527 39,000  Level Washington Center
10:29PM 35.8403 -77.8122 33° Northeast 458 527 39,000  Level Washington Center
10:30PM 35.9458 -77.7264 33° Northeast 458 527 39,000  Level Washington Center
10:31PM 36.0703 -77.6161 36° Northeast 459 528 39,000  Level Washington Center
10:32PM 36.1722 -77.5189 38° Northeast 461 531 39,000  Level Washington Center
10:33PM 36.2803 -77.4178 37° Northeast 462 532 39,000  Level Washington Center
10:34PM 36.3831 -77.3253 36° Northeast 461 531 39,000  Level Washington Center
10:35PM 36.4839 -77.2275 38° Northeast 462 532 39,000  Level Washington Center
10:36PM 36.5858 -77.1331 37° Northeast 462 532 39,000  Level Washington Center
10:37PM 36.6883 -77.0358 37° Northeast 463 533 39,000  Level Washington Center
10:38PM 36.8111 -76.9233 36° Northeast 461 531 39,000  Level Washington Center
10:39PM 36.9142 -76.8317 35° Northeast 461 531 39,000  Level Washington Center
10:40PM 37.0169 -76.7400 35° Northeast 461 531 39,000  Level Washington Center
10:42PM 37.1194 -76.6464 36° Northeast 461 531 39,000  Level Washington Center
10:43PM 37.2428 -76.5344 36° Northeast 462 532 39,000  Level Washington Center
10:44PM 37.3481 -76.4444 34° Northeast 462 532 39,000  Level Washington Center
10:45PM 37.4525 -76.3544 34° Northeast 462 532 39,000  Level Washington Center
10:46PM 37.5586 -76.2644 34° Northeast 463 533 39,000  Level Washington Center
10:47PM 37.6633 -76.1725 35° Northeast 463 533 39,000  Level Washington Center
10:48PM 37.7906 -76.0622 34° Northeast 464 534 39,000  Level Washington Center
10:49PM 37.8953 -75.9717 34° Northeast 464 534 39,000  Level Washington Center
10:50PM 38.0000 -75.8803 35° Northeast 463 533 39,000  Level Washington Center
10:51PM 38.1047 -75.7889 34° Northeast 462 532 39,000  Level Washington Center
10:52PM 38.2075 -75.6969 35° Northeast 458 527 39,000  Level Washington Center
10:53PM 38.3122 -75.6061 34° Northeast 458 527 39,000  Level Washington Center
10:54PM 38.4369 -75.4942 35° Northeast 458 527 39,000  Level Washington Center
10:55PM 38.5408 -75.4056 34° Northeast 456 525 39,000  Level Washington Center
10:56PM 38.6433 -75.3097 36° Northeast 456 525 39,000  Level Washington Center
10:57PM 38.7472 -75.2183 34° Northeast 455 524 39,000  Level Washington Center
10:58PM 38.8497 -75.1250 35° Northeast 453 521 39,000  Level Washington Center
10:59PM 38.9525 -75.0311 35° Northeast 453 521 39,000  Level Washington Center
11:00PM 39.0550 -74.9375 35° Northeast 452 520 39,000  Level Washington Center
11:01PM 39.1772 -74.8256 35° Northeast 453 521 39,000  Level Washington Center
11:02PM 39.2767 -74.7361 35° Northeast 441 507 39,000  Level Washington Center
11:03PM 39.3753 -74.6444 36° Northeast 442 509 39,000  Level Washington Center
11:04PM 39.4728 -74.5536 36° Northeast 440 506 39,000  Level Washington Center
11:05PM 39.5708 -74.4633 35° Northeast 438 504 39,000 -960 Level Washington Center
11:06PM 39.6675 -74.3725 36° Northeast 436 502 37,000 -2,800 Descending Washington Center
11:07PM 39.7867 -74.2617 36° Northeast 441 507 33,400 -3,048 Descending Washington Center
11:08PM 39.8883 -74.1644 36° Northeast 446 513 30,700 -2,516 Descending Washington Center
11:09PM 39.9836 -74.0756 36° Northeast 440 506 28,200 -2,410 Descending Washington Center
11:10PM 40.0781 -73.9858 36° Northeast 428 493 25,800 -1,574 Descending Washington Center
11:11PM 40.1703 -73.8992 36° Northeast 415 478 25,000 -390 Descending Washington Center
11:12PM 40.2672 -73.8075 36° Northeast 426 490 25,000  Level Washington Center
11:14PM 40.3917 -73.6883 36° Northeast 429 494 25,000  Level Boston Center
11:15PM 40.5017 -73.5858 35° Northeast 429 494 25,000 -344 Level Boston Center
11:16PM 40.5981 -73.4925 36° Northeast 429 494 24,300 -1,636 Descending Boston Center
11:17PM 40.6906 -73.4014 37° Northeast 420 483 21,700 -2,380 Descending Boston Center
11:18PM 40.7700 -73.3267 35° Northeast 410 472 19,500 -1,328 Descending Boston Center
11:19PM 40.8547 -73.2325 40° Northeast 392 451 19,000 -248 Descending Boston Center
11:20PM 40.9358 -73.1378 41° Northeast 391 450 19,000  Level Boston Center
11:21PM 41.0164 -73.0431 42° Northeast 387 445 19,000 -938 Level Boston Center
11:22PM 41.1172 -72.9222 42° Northeast 375 432 17,000 -2,017 Descending Boston Center
11:23PM 41.1764 -72.8550 41° Northeast 366 421 15,100 -2,388 Descending Boston Center
11:23PM 41.2447 -72.7736 42° Northeast 355 409 12,900 -2,000 Descending Boston Center
11:24PM 41.2478 -72.7700 42° Northeast 359 413 12,900 -1,967 Level Boston Center
11:25PM 41.3219 -72.7122 30° Northeast 313 360 10,900 -2,400 Descending Boston Center
11:25PM 41.3392 -72.7147 354° North 315 362 10,500 -833 Descending Boston Center
11:26PM 41.4142 -72.7397 346° North 276 318 9,900 -1,096 Descending Boston Center
11:26PM 41.4619 -72.7567 345° North 255 293 8,600 -1,500 Descending Boston Center
11:27PM 41.5308 -72.7783 347° North 255 293 7,300 -1,512 Descending Boston Center
11:29PM 41.6058 -72.8025 346° North 236 272 5,400 -1,606 Descending Boston Center
11:30PM 41.6689 -72.8222 347° North 235 270 3,900 -1,190 Descending Boston Center
11:31PM 41.7272 -72.8431 345° North 211 243 3,000 -694 Descending Boston Center
11:32PM 41.7778 -72.8383 North 176 203 2,500 -563 Descending Boston Center
11:33PM 41.8303 -72.8139 19° North 168 193 1,800 -331 Descending Boston Center
11:34PM 41.8664 -72.7836 32° Northeast 156 180 1,800 -331 Level Boston Center
11:35PM 41.8989 -72.7406 45° Northeast 145 167 1,100 -656 Descending Boston Center
11:36PM 41.9225 -72.7086 45° Northeast 122 140 400 -689 Descending Boston Center
11:38PM 41.9333 -72.6833 45° Northeast  Level FlightAware Approximate
11:45PM 41.9392 -72.6834 45° Northeast  Level Estimated
11:46PM 41.9333 -72.6833 45° Northeast  Level FlightAware Approximate